sensor_id;sensor_type;location;lat;lon;timestamp;P1;durP1;ratioP1;P2;durP2;ratioP2
19842;SDS011;10082;51.038;6.992;2023-08-01T00:00:24;3.00;;;2.53;;
19842;SDS011;10082;51.038;6.992;2023-08-01T00:02:52;3.45;;;2.17;;
19842;SDS011;10082;51.038;6.992;2023-08-01T00:05:24;2.88;;;2.30;;
19842;SDS011;10082;51.038;6.992;2023-08-01T00:07:51;2.78;;;2.30;;
19842;SDS011;10082;51.038;6.992;2023-08-01T00:10:21;2.58;;;2.25;;
19842;SDS011;10082;51.038;6.992;2023-08-01T00:12:48;2.42;;;2.13;;
19842;SDS011;10082;51.038;6.992;2023-08-01T00:15:16;2.83;;;2.40;;
19842;SDS011;10082;51.038;6.992;2023-08-01T00:17:44;3.65;;;2.30;;
19842;SDS011;10082;51.038;6.992;2023-08-01T00:20:11;4.10;;;2.30;;
19842;SDS011;10082;51.038;6.992;2023-08-01T00:22:39;2.28;;;2.08;;
19842;SDS011;10082;51.038;6.992;2023-08-01T00:25:06;3.55;;;2.25;;
19842;SDS011;10082;51.038;6.992;2023-08-01T00:27:36;4.63;;;2.80;;
19842;SDS011;10082;51.038;6.992;2023-08-01T00:30:04;5.15;;;2.60;;
19842;SDS011;10082;51.038;6.992;2023-08-01T00:32:32;5.70;;;2.72;;
19842;SDS011;10082;51.038;6.992;2023-08-01T00:34:59;4.45;;;2.60;;
19842;SDS011;10082;51.038;6.992;2023-08-01T00:37:26;3.17;;;2.40;;
19842;SDS011;10082;51.038;6.992;2023-08-01T00:39:52;4.70;;;2.90;;
19842;SDS011;10082;51.038;6.992;2023-08-01T00:42:20;3.75;;;3.10;;
19842;SDS011;10082;51.038;6.992;2023-08-01T00:44:49;3.05;;;2.75;;
19842;SDS011;10082;51.038;6.992;2023-08-01T00:47:16;5.32;;;3.50;;
19842;SDS011;10082;51.038;6.992;2023-08-01T00:49:45;3.70;;;3.20;;
19842;SDS011;10082;51.038;6.992;2023-08-01T00:52:12;6.38;;;3.42;;
19842;SDS011;10082;51.038;6.992;2023-08-01T00:54:40;4.57;;;3.50;;
19842;SDS011;10082;51.038;6.992;2023-08-01T00:57:08;3.85;;;3.17;;
19842;SDS011;10082;51.038;6.992;2023-08-01T00:59:36;3.20;;;2.63;;
19842;SDS011;10082;51.038;6.992;2023-08-01T01:02:06;4.97;;;3.00;;
19842;SDS011;10082;51.038;6.992;2023-08-01T01:04:33;5.40;;;2.50;;
19842;SDS011;10082;51.038;6.992;2023-08-01T01:07:02;4.55;;;2.90;;
19842;SDS011;10082;51.038;6.992;2023-08-01T01:09:33;4.38;;;3.20;;
19842;SDS011;10082;51.038;6.992;2023-08-01T01:12:01;5.22;;;3.72;;
19842;SDS011;10082;51.038;6.992;2023-08-01T01:14:29;4.28;;;3.97;;
19842;SDS011;10082;51.038;6.992;2023-08-01T01:16:57;4.78;;;3.90;;
19842;SDS011;10082;51.038;6.992;2023-08-01T01:19:26;4.70;;;3.65;;
19842;SDS011;10082;51.038;6.992;2023-08-01T01:21:55;4.90;;;4.43;;
19842;SDS011;10082;51.038;6.992;2023-08-01T01:24:24;3.95;;;3.58;;
19842;SDS011;10082;51.038;6.992;2023-08-01T01:26:53;3.42;;;3.13;;
19842;SDS011;10082;51.038;6.992;2023-08-01T01:29:26;5.85;;;5.35;;
19842;SDS011;10082;51.038;6.992;2023-08-01T01:31:54;7.53;;;6.43;;
19842;SDS011;10082;51.038;6.992;2023-08-01T01:34:22;2.60;;;2.22;;
19842;SDS011;10082;51.038;6.992;2023-08-01T01:36:51;1.10;;;1.00;;
19842;SDS011;10082;51.038;6.992;2023-08-01T01:39:20;1.05;;;0.95;;
19842;SDS011;10082;51.038;6.992;2023-08-01T01:41:49;1.30;;;0.90;;
19842;SDS011;10082;51.038;6.992;2023-08-01T01:44:17;1.33;;;0.88;;
19842;SDS011;10082;51.038;6.992;2023-08-01T01:46:45;1.02;;;0.68;;
19842;SDS011;10082;51.038;6.992;2023-08-01T01:49:14;2.20;;;1.00;;
19842;SDS011;10082;51.038;6.992;2023-08-01T01:51:42;0.95;;;0.90;;
19842;SDS011;10082;51.038;6.992;2023-08-01T01:54:10;0.93;;;0.90;;
19842;SDS011;10082;51.038;6.992;2023-08-01T01:56:39;1.30;;;0.75;;
19842;SDS011;10082;51.038;6.992;2023-08-01T01:59:06;1.45;;;0.80;;
19842;SDS011;10082;51.038;6.992;2023-08-01T02:01:34;1.52;;;0.85;;
19842;SDS011;10082;51.038;6.992;2023-08-01T02:04:02;0.88;;;0.88;;
19842;SDS011;10082;51.038;6.992;2023-08-01T02:06:33;2.13;;;1.08;;
19842;SDS011;10082;51.038;6.992;2023-08-01T02:09:01;0.70;;;0.70;;
19842;SDS011;10082;51.038;6.992;2023-08-01T02:11:30;1.02;;;0.90;;
19842;SDS011;10082;51.038;6.992;2023-08-01T02:13:59;0.70;;;0.70;;
19842;SDS011;10082;51.038;6.992;2023-08-01T02:16:28;1.13;;;1.00;;
19842;SDS011;10082;51.038;6.992;2023-08-01T02:18:56;0.95;;;0.85;;
19842;SDS011;10082;51.038;6.992;2023-08-01T02:21:23;0.80;;;0.80;;
19842;SDS011;10082;51.038;6.992;2023-08-01T02:23:51;1.00;;;1.00;;
19842;SDS011;10082;51.038;6.992;2023-08-01T02:26:18;1.10;;;1.10;;
19842;SDS011;10082;51.038;6.992;2023-08-01T02:28:48;1.40;;;1.30;;
19842;SDS011;10082;51.038;6.992;2023-08-01T02:31:17;1.38;;;1.20;;
19842;SDS011;10082;51.038;6.992;2023-08-01T02:33:47;1.45;;;1.35;;
19842;SDS011;10082;51.038;6.992;2023-08-01T02:36:16;1.52;;;1.40;;
19842;SDS011;10082;51.038;6.992;2023-08-01T02:38:44;1.02;;;1.02;;
19842;SDS011;10082;51.038;6.992;2023-08-01T02:41:12;1.40;;;1.30;;
19842;SDS011;10082;51.038;6.992;2023-08-01T02:43:39;1.23;;;1.13;;
19842;SDS011;10082;51.038;6.992;2023-08-01T02:46:07;1.40;;;1.27;;
19842;SDS011;10082;51.038;6.992;2023-08-01T02:48:37;1.40;;;1.30;;
19842;SDS011;10082;51.038;6.992;2023-08-01T02:51:05;1.58;;;1.48;;
19842;SDS011;10082;51.038;6.992;2023-08-01T02:53:34;1.20;;;1.20;;
19842;SDS011;10082;51.038;6.992;2023-08-01T02:56:02;1.67;;;1.38;;
19842;SDS011;10082;51.038;6.992;2023-08-01T02:58:32;1.60;;;1.50;;
19842;SDS011;10082;51.038;6.992;2023-08-01T03:01:00;2.10;;;1.70;;
19842;SDS011;10082;51.038;6.992;2023-08-01T03:03:27;2.92;;;1.90;;
19842;SDS011;10082;51.038;6.992;2023-08-01T03:05:56;1.73;;;1.63;;
19842;SDS011;10082;51.038;6.992;2023-08-01T03:08:23;1.90;;;1.63;;
19842;SDS011;10082;51.038;6.992;2023-08-01T03:10:50;2.05;;;1.90;;
19842;SDS011;10082;51.038;6.992;2023-08-01T03:13:17;2.05;;;1.88;;
19842;SDS011;10082;51.038;6.992;2023-08-01T03:15:45;2.10;;;1.88;;
19842;SDS011;10082;51.038;6.992;2023-08-01T03:18:12;2.13;;;2.00;;
19842;SDS011;10082;51.038;6.992;2023-08-01T03:20:40;2.67;;;2.47;;
19842;SDS011;10082;51.038;6.992;2023-08-01T03:23:09;2.50;;;2.30;;
19842;SDS011;10082;51.038;6.992;2023-08-01T03:25:36;2.67;;;2.47;;
19842;SDS011;10082;51.038;6.992;2023-08-01T03:28:04;2.53;;;2.33;;
19842;SDS011;10082;51.038;6.992;2023-08-01T03:30:32;3.70;;;3.45;;
19842;SDS011;10082;51.038;6.992;2023-08-01T03:33:00;3.92;;;3.60;;
19842;SDS011;10082;51.038;6.992;2023-08-01T03:35:28;4.53;;;4.20;;
19842;SDS011;10082;51.038;6.992;2023-08-01T03:37:55;4.65;;;4.28;;
19842;SDS011;10082;51.038;6.992;2023-08-01T03:40:24;5.43;;;4.93;;
19842;SDS011;10082;51.038;6.992;2023-08-01T03:42:52;6.95;;;5.80;;
19842;SDS011;10082;51.038;6.992;2023-08-01T03:45:19;6.25;;;5.75;;
19842;SDS011;10082;51.038;6.992;2023-08-01T03:47:47;6.32;;;5.78;;
19842;SDS011;10082;51.038;6.992;2023-08-01T03:50:15;6.43;;;5.93;;
19842;SDS011;10082;51.038;6.992;2023-08-01T03:52:42;7.93;;;7.07;;
19842;SDS011;10082;51.038;6.992;2023-08-01T03:55:10;7.60;;;6.88;;
19842;SDS011;10082;51.038;6.992;2023-08-01T03:57:39;8.18;;;7.43;;
19842;SDS011;10082;51.038;6.992;2023-08-01T04:00:08;7.68;;;7.07;;
19842;SDS011;10082;51.038;6.992;2023-08-01T04:02:39;8.65;;;7.57;;
19842;SDS011;10082;51.038;6.992;2023-08-01T04:05:07;8.73;;;7.55;;
19842;SDS011;10082;51.038;6.992;2023-08-01T04:07:35;8.80;;;7.90;;
19842;SDS011;10082;51.038;6.992;2023-08-01T04:10:02;8.88;;;7.97;;
19842;SDS011;10082;51.038;6.992;2023-08-01T04:12:32;9.23;;;8.43;;
19842;SDS011;10082;51.038;6.992;2023-08-01T04:15:01;9.38;;;8.57;;
19842;SDS011;10082;51.038;6.992;2023-08-01T04:17:29;9.43;;;8.63;;
19842;SDS011;10082;51.038;6.992;2023-08-01T04:19:56;10.05;;;9.02;;
19842;SDS011;10082;51.038;6.992;2023-08-01T04:22:32;10.35;;;8.98;;
19842;SDS011;10082;51.038;6.992;2023-08-01T04:25:00;10.77;;;8.65;;
19842;SDS011;10082;51.038;6.992;2023-08-01T04:27:28;11.55;;;9.55;;
19842;SDS011;10082;51.038;6.992;2023-08-01T04:29:55;11.15;;;10.13;;
19842;SDS011;10082;51.038;6.992;2023-08-01T04:32:24;11.18;;;9.73;;
19842;SDS011;10082;51.038;6.992;2023-08-01T04:34:54;10.85;;;9.85;;
19842;SDS011;10082;51.038;6.992;2023-08-01T04:37:21;11.60;;;10.48;;
19842;SDS011;10082;51.038;6.992;2023-08-01T04:39:51;11.02;;;10.02;;
19842;SDS011;10082;51.038;6.992;2023-08-01T04:42:19;11.70;;;10.45;;
19842;SDS011;10082;51.038;6.992;2023-08-01T04:44:47;11.90;;;10.48;;
19842;SDS011;10082;51.038;6.992;2023-08-01T04:47:14;10.50;;;9.50;;
19842;SDS011;10082;51.038;6.992;2023-08-01T04:49:43;10.75;;;9.68;;
19842;SDS011;10082;51.038;6.992;2023-08-01T04:52:10;11.07;;;10.07;;
19842;SDS011;10082;51.038;6.992;2023-08-01T04:54:37;12.30;;;9.77;;
19842;SDS011;10082;51.038;6.992;2023-08-01T04:57:05;10.00;;;8.93;;
19842;SDS011;10082;51.038;6.992;2023-08-01T04:59:32;11.00;;;9.38;;
19842;SDS011;10082;51.038;6.992;2023-08-01T05:01:59;9.88;;;8.73;;
19842;SDS011;10082;51.038;6.992;2023-08-01T05:04:27;10.90;;;8.88;;
19842;SDS011;10082;51.038;6.992;2023-08-01T05:06:55;9.02;;;8.13;;
19842;SDS011;10082;51.038;6.992;2023-08-01T05:09:22;10.82;;;8.90;;
19842;SDS011;10082;51.038;6.992;2023-08-01T05:11:49;9.63;;;8.63;;
19842;SDS011;10082;51.038;6.992;2023-08-01T05:14:17;9.40;;;8.10;;
19842;SDS011;10082;51.038;6.992;2023-08-01T05:16:44;9.45;;;8.45;;
19842;SDS011;10082;51.038;6.992;2023-08-01T05:19:12;8.65;;;7.85;;
19842;SDS011;10082;51.038;6.992;2023-08-01T05:21:39;9.23;;;8.15;;
19842;SDS011;10082;51.038;6.992;2023-08-01T05:24:08;8.60;;;7.80;;
19842;SDS011;10082;51.038;6.992;2023-08-01T05:26:36;9.40;;;7.50;;
19842;SDS011;10082;51.038;6.992;2023-08-01T05:29:03;9.38;;;7.63;;
19842;SDS011;10082;51.038;6.992;2023-08-01T05:31:30;9.63;;;7.22;;
19842;SDS011;10082;51.038;6.992;2023-08-01T05:33:58;7.85;;;6.88;;
19842;SDS011;10082;51.038;6.992;2023-08-01T05:36:25;9.48;;;6.75;;
19842;SDS011;10082;51.038;6.992;2023-08-01T05:38:52;7.35;;;6.55;;
19842;SDS011;10082;51.038;6.992;2023-08-01T05:41:20;8.35;;;6.93;;
19842;SDS011;10082;51.038;6.992;2023-08-01T05:43:47;9.05;;;6.90;;
19842;SDS011;10082;51.038;6.992;2023-08-01T05:46:15;8.35;;;6.85;;
19842;SDS011;10082;51.038;6.992;2023-08-01T05:48:42;8.57;;;7.00;;
19842;SDS011;10082;51.038;6.992;2023-08-01T05:51:09;10.02;;;7.47;;
19842;SDS011;10082;51.038;6.992;2023-08-01T05:53:36;8.88;;;7.05;;
19842;SDS011;10082;51.038;6.992;2023-08-01T05:56:04;9.80;;;7.63;;
19842;SDS011;10082;51.038;6.992;2023-08-01T05:58:33;8.60;;;7.43;;
19842;SDS011;10082;51.038;6.992;2023-08-01T06:01:00;8.88;;;6.38;;
19842;SDS011;10082;51.038;6.992;2023-08-01T06:03:27;7.50;;;6.60;;
19842;SDS011;10082;51.038;6.992;2023-08-01T06:05:54;8.23;;;6.72;;
19842;SDS011;10082;51.038;6.992;2023-08-01T06:08:21;7.75;;;6.95;;
19842;SDS011;10082;51.038;6.992;2023-08-01T06:10:48;10.35;;;6.20;;
19842;SDS011;10082;51.038;6.992;2023-08-01T06:13:15;7.50;;;6.70;;
19842;SDS011;10082;51.038;6.992;2023-08-01T06:15:44;9.07;;;6.43;;
19842;SDS011;10082;51.038;6.992;2023-08-01T06:18:11;7.63;;;5.90;;
19842;SDS011;10082;51.038;6.992;2023-08-01T06:20:38;9.02;;;6.32;;
19842;SDS011;10082;51.038;6.992;2023-08-01T06:23:05;8.57;;;6.32;;
19842;SDS011;10082;51.038;6.992;2023-08-01T06:25:33;7.97;;;5.60;;
19842;SDS011;10082;51.038;6.992;2023-08-01T06:28:00;6.47;;;5.75;;
19842;SDS011;10082;51.038;6.992;2023-08-01T06:30:27;9.10;;;5.88;;
19842;SDS011;10082;51.038;6.992;2023-08-01T06:32:56;8.55;;;6.15;;
19842;SDS011;10082;51.038;6.992;2023-08-01T06:35:23;6.38;;;5.65;;
19842;SDS011;10082;51.038;6.992;2023-08-01T06:37:50;7.22;;;5.50;;
19842;SDS011;10082;51.038;6.992;2023-08-01T06:40:17;7.10;;;5.55;;
19842;SDS011;10082;51.038;6.992;2023-08-01T06:42:44;8.32;;;5.80;;
19842;SDS011;10082;51.038;6.992;2023-08-01T06:45:11;8.18;;;5.28;;
19842;SDS011;10082;51.038;6.992;2023-08-01T06:47:38;6.90;;;4.95;;
19842;SDS011;10082;51.038;6.992;2023-08-01T06:50:07;9.55;;;5.53;;
19842;SDS011;10082;51.038;6.992;2023-08-01T06:52:35;7.90;;;5.68;;
19842;SDS011;10082;51.038;6.992;2023-08-01T06:55:03;8.10;;;5.55;;
19842;SDS011;10082;51.038;6.992;2023-08-01T06:57:32;8.95;;;5.60;;
19842;SDS011;10082;51.038;6.992;2023-08-01T06:59:59;6.00;;;5.15;;
19842;SDS011;10082;51.038;6.992;2023-08-01T07:02:26;7.93;;;5.47;;
19842;SDS011;10082;51.038;6.992;2023-08-01T07:04:54;6.53;;;5.07;;
19842;SDS011;10082;51.038;6.992;2023-08-01T07:07:22;6.28;;;5.65;;
19842;SDS011;10082;51.038;6.992;2023-08-01T07:09:50;7.85;;;5.18;;
19842;SDS011;10082;51.038;6.992;2023-08-01T07:12:17;6.47;;;5.20;;
19842;SDS011;10082;51.038;6.992;2023-08-01T07:14:44;10.10;;;5.35;;
19842;SDS011;10082;51.038;6.992;2023-08-01T07:17:11;7.47;;;5.55;;
19842;SDS011;10082;51.038;6.992;2023-08-01T07:19:38;7.82;;;5.80;;
19842;SDS011;10082;51.038;6.992;2023-08-01T07:22:05;5.65;;;5.03;;
19842;SDS011;10082;51.038;6.992;2023-08-01T07:24:33;7.60;;;6.07;;
19842;SDS011;10082;51.038;6.992;2023-08-01T07:27:01;5.85;;;4.80;;
19842;SDS011;10082;51.038;6.992;2023-08-01T07:29:28;7.65;;;5.43;;
19842;SDS011;10082;51.038;6.992;2023-08-01T07:31:55;8.25;;;6.00;;
19842;SDS011;10082;51.038;6.992;2023-08-01T07:34:22;6.88;;;5.20;;
19842;SDS011;10082;51.038;6.992;2023-08-01T07:36:49;11.27;;;4.65;;
19842;SDS011;10082;51.038;6.992;2023-08-01T07:39:16;7.22;;;5.55;;
19842;SDS011;10082;51.038;6.992;2023-08-01T07:41:45;8.98;;;5.30;;
19842;SDS011;10082;51.038;6.992;2023-08-01T07:44:12;7.82;;;5.25;;
19842;SDS011;10082;51.038;6.992;2023-08-01T07:46:39;9.75;;;5.43;;
19842;SDS011;10082;51.038;6.992;2023-08-01T07:49:07;8.70;;;5.55;;
19842;SDS011;10082;51.038;6.992;2023-08-01T07:51:34;6.25;;;5.30;;
19842;SDS011;10082;51.038;6.992;2023-08-01T07:54:01;7.88;;;5.32;;
19842;SDS011;10082;51.038;6.992;2023-08-01T07:56:29;6.00;;;5.40;;
19842;SDS011;10082;51.038;6.992;2023-08-01T07:58:57;8.73;;;5.07;;
19842;SDS011;10082;51.038;6.992;2023-08-01T08:01:24;8.00;;;5.45;;
19842;SDS011;10082;51.038;6.992;2023-08-01T08:03:51;7.38;;;4.82;;
19842;SDS011;10082;51.038;6.992;2023-08-01T08:06:18;8.75;;;4.75;;
19842;SDS011;10082;51.038;6.992;2023-08-01T08:08:46;10.40;;;5.68;;
19842;SDS011;10082;51.038;6.992;2023-08-01T08:11:13;7.85;;;5.30;;
19842;SDS011;10082;51.038;6.992;2023-08-01T08:13:41;7.38;;;4.80;;
19842;SDS011;10082;51.038;6.992;2023-08-01T08:16:10;7.05;;;4.82;;
19842;SDS011;10082;51.038;6.992;2023-08-01T08:18:37;6.82;;;5.07;;
19842;SDS011;10082;51.038;6.992;2023-08-01T08:21:04;6.78;;;4.45;;
19842;SDS011;10082;51.038;6.992;2023-08-01T08:23:31;5.13;;;4.18;;
19842;SDS011;10082;51.038;6.992;2023-08-01T08:25:58;6.25;;;4.40;;
19842;SDS011;10082;51.038;6.992;2023-08-01T08:28:30;6.40;;;4.40;;
19842;SDS011;10082;51.038;6.992;2023-08-01T08:30:58;6.63;;;4.70;;
19842;SDS011;10082;51.038;6.992;2023-08-01T08:33:28;6.15;;;4.10;;
19842;SDS011;10082;51.038;6.992;2023-08-01T08:35:56;8.70;;;4.40;;
19842;SDS011;10082;51.038;6.992;2023-08-01T08:38:23;7.10;;;4.47;;
19842;SDS011;10082;51.038;6.992;2023-08-01T08:40:52;7.63;;;4.63;;
19842;SDS011;10082;51.038;6.992;2023-08-01T08:43:26;6.43;;;4.55;;
19842;SDS011;10082;51.038;6.992;2023-08-01T08:45:56;5.95;;;4.75;;
19842;SDS011;10082;51.038;6.992;2023-08-01T08:48:28;7.13;;;5.00;;
19842;SDS011;10082;51.038;6.992;2023-08-01T08:50:56;6.03;;;4.78;;
19842;SDS011;10082;51.038;6.992;2023-08-01T08:53:24;5.63;;;3.83;;
19842;SDS011;10082;51.038;6.992;2023-08-01T08:55:52;6.40;;;4.13;;
19842;SDS011;10082;51.038;6.992;2023-08-01T08:58:19;7.07;;;4.43;;
19842;SDS011;10082;51.038;6.992;2023-08-01T09:00:47;6.20;;;4.30;;
19842;SDS011;10082;51.038;6.992;2023-08-01T09:03:15;6.68;;;4.30;;
19842;SDS011;10082;51.038;6.992;2023-08-01T09:05:47;8.70;;;4.65;;
19842;SDS011;10082;51.038;6.992;2023-08-01T09:08:18;8.18;;;4.43;;
19842;SDS011;10082;51.038;6.992;2023-08-01T09:10:46;6.13;;;4.05;;
19842;SDS011;10082;51.038;6.992;2023-08-01T09:13:14;5.65;;;3.63;;
19842;SDS011;10082;51.038;6.992;2023-08-01T09:15:41;4.75;;;3.90;;
19842;SDS011;10082;51.038;6.992;2023-08-01T09:18:09;4.97;;;3.80;;
19842;SDS011;10082;51.038;6.992;2023-08-01T09:20:40;6.35;;;3.80;;
19842;SDS011;10082;51.038;6.992;2023-08-01T09:23:10;4.55;;;3.60;;
19842;SDS011;10082;51.038;6.992;2023-08-01T09:25:37;5.45;;;3.72;;
19842;SDS011;10082;51.038;6.992;2023-08-01T09:28:14;4.63;;;3.60;;
19842;SDS011;10082;51.038;6.992;2023-08-01T09:30:46;6.40;;;3.80;;
19842;SDS011;10082;51.038;6.992;2023-08-01T09:33:13;5.25;;;3.78;;
19842;SDS011;10082;51.038;6.992;2023-08-01T09:35:41;6.45;;;4.50;;
19842;SDS011;10082;51.038;6.992;2023-08-01T09:38:11;7.35;;;5.00;;
19842;SDS011;10082;51.038;6.992;2023-08-01T09:40:40;7.95;;;5.55;;
19842;SDS011;10082;51.038;6.992;2023-08-01T09:43:08;8.13;;;5.47;;
19842;SDS011;10082;51.038;6.992;2023-08-01T09:45:36;8.40;;;5.82;;
19842;SDS011;10082;51.038;6.992;2023-08-01T09:48:03;5.05;;;4.65;;
19842;SDS011;10082;51.038;6.992;2023-08-01T09:50:30;6.80;;;5.00;;
19842;SDS011;10082;51.038;6.992;2023-08-01T09:53:06;5.60;;;4.35;;
19842;SDS011;10082;51.038;6.992;2023-08-01T09:55:35;4.85;;;4.18;;
19842;SDS011;10082;51.038;6.992;2023-08-01T09:58:06;5.97;;;3.70;;
19842;SDS011;10082;51.038;6.992;2023-08-01T10:00:34;4.63;;;4.03;;
19842;SDS011;10082;51.038;6.992;2023-08-01T10:03:02;7.78;;;4.03;;
19842;SDS011;10082;51.038;6.992;2023-08-01T10:05:30;6.07;;;3.95;;
19842;SDS011;10082;51.038;6.992;2023-08-01T10:07:58;5.47;;;3.50;;
19842;SDS011;10082;51.038;6.992;2023-08-01T10:10:26;5.28;;;3.60;;
19842;SDS011;10082;51.038;6.992;2023-08-01T10:12:55;5.25;;;3.88;;
19842;SDS011;10082;51.038;6.992;2023-08-01T10:15:23;5.85;;;3.53;;
19842;SDS011;10082;51.038;6.992;2023-08-01T10:17:51;4.45;;;2.95;;
19842;SDS011;10082;51.038;6.992;2023-08-01T10:20:19;4.28;;;3.45;;
19842;SDS011;10082;51.038;6.992;2023-08-01T10:22:48;4.30;;;3.33;;
19842;SDS011;10082;51.038;6.992;2023-08-01T10:25:16;3.97;;;3.15;;
19842;SDS011;10082;51.038;6.992;2023-08-01T10:27:56;4.60;;;3.13;;
19842;SDS011;10082;51.038;6.992;2023-08-01T10:30:26;6.43;;;3.17;;
19842;SDS011;10082;51.038;6.992;2023-08-01T10:32:54;5.70;;;3.50;;
19842;SDS011;10082;51.038;6.992;2023-08-01T10:35:31;6.40;;;3.58;;
19842;SDS011;10082;51.038;6.992;2023-08-01T10:38:04;4.97;;;3.15;;
19842;SDS011;10082;51.038;6.992;2023-08-01T10:40:33;5.55;;;3.58;;
19842;SDS011;10082;51.038;6.992;2023-08-01T10:43:02;6.72;;;3.25;;
19842;SDS011;10082;51.038;6.992;2023-08-01T10:45:29;5.47;;;3.42;;
19842;SDS011;10082;51.038;6.992;2023-08-01T10:48:05;6.03;;;3.30;;
19842;SDS011;10082;51.038;6.992;2023-08-01T10:50:33;6.35;;;3.47;;
19842;SDS011;10082;51.038;6.992;2023-08-01T10:53:03;7.18;;;3.60;;
19842;SDS011;10082;51.038;6.992;2023-08-01T10:55:38;6.80;;;3.28;;
19842;SDS011;10082;51.038;6.992;2023-08-01T10:58:08;5.72;;;3.10;;
19842;SDS011;10082;51.038;6.992;2023-08-01T11:00:35;3.92;;;3.22;;
19842;SDS011;10082;51.038;6.992;2023-08-01T11:03:02;2.88;;;2.33;;
19842;SDS011;10082;51.038;6.992;2023-08-01T11:05:30;5.57;;;3.20;;
19842;SDS011;10082;51.038;6.992;2023-08-01T11:07:57;4.07;;;2.53;;
19842;SDS011;10082;51.038;6.992;2023-08-01T11:10:26;3.78;;;2.83;;
19842;SDS011;10082;51.038;6.992;2023-08-01T11:12:54;4.55;;;2.63;;
19842;SDS011;10082;51.038;6.992;2023-08-01T11:15:23;6.07;;;2.80;;
19842;SDS011;10082;51.038;6.992;2023-08-01T11:17:50;4.00;;;2.60;;
19842;SDS011;10082;51.038;6.992;2023-08-01T11:20:22;4.93;;;2.40;;
19842;SDS011;10082;51.038;6.992;2023-08-01T11:22:52;5.38;;;2.75;;
19842;SDS011;10082;51.038;6.992;2023-08-01T11:25:31;5.57;;;2.83;;
19842;SDS011;10082;51.038;6.992;2023-08-01T11:28:02;3.33;;;2.53;;
19842;SDS011;10082;51.038;6.992;2023-08-01T11:30:33;3.53;;;2.60;;
19842;SDS011;10082;51.038;6.992;2023-08-01T11:33:01;4.22;;;2.70;;
19842;SDS011;10082;51.038;6.992;2023-08-01T11:35:29;2.75;;;2.30;;
19842;SDS011;10082;51.038;6.992;2023-08-01T11:37:56;7.00;;;3.20;;
19842;SDS011;10082;51.038;6.992;2023-08-01T11:40:25;4.70;;;2.60;;
19842;SDS011;10082;51.038;6.992;2023-08-01T11:42:56;5.07;;;2.47;;
19842;SDS011;10082;51.038;6.992;2023-08-01T11:45:24;5.85;;;2.80;;
19842;SDS011;10082;51.038;6.992;2023-08-01T11:47:52;3.55;;;2.80;;
19842;SDS011;10082;51.038;6.992;2023-08-01T11:50:20;4.28;;;2.50;;
19842;SDS011;10082;51.038;6.992;2023-08-01T11:52:48;4.40;;;2.80;;
19842;SDS011;10082;51.038;6.992;2023-08-01T11:55:19;3.42;;;2.38;;
19842;SDS011;10082;51.038;6.992;2023-08-01T11:57:51;3.50;;;2.35;;
19842;SDS011;10082;51.038;6.992;2023-08-01T12:00:22;5.03;;;2.25;;
19842;SDS011;10082;51.038;6.992;2023-08-01T12:02:50;5.65;;;3.05;;
19842;SDS011;10082;51.038;6.992;2023-08-01T12:05:29;4.15;;;2.00;;
19842;SDS011;10082;51.038;6.992;2023-08-01T12:08:07;2.45;;;1.75;;
19842;SDS011;10082;51.038;6.992;2023-08-01T12:10:36;2.35;;;1.63;;
19842;SDS011;10082;51.038;6.992;2023-08-01T12:13:04;3.15;;;1.63;;
19842;SDS011;10082;51.038;6.992;2023-08-01T12:15:31;2.60;;;1.67;;
19842;SDS011;10082;51.038;6.992;2023-08-01T12:17:59;2.38;;;1.80;;
19842;SDS011;10082;51.038;6.992;2023-08-01T12:20:26;3.60;;;1.70;;
19842;SDS011;10082;51.038;6.992;2023-08-01T12:22:53;3.97;;;2.08;;
19842;SDS011;10082;51.038;6.992;2023-08-01T12:25:20;3.55;;;2.15;;
19842;SDS011;10082;51.038;6.992;2023-08-01T12:27:47;2.72;;;2.17;;
19842;SDS011;10082;51.038;6.992;2023-08-01T12:30:14;3.78;;;2.30;;
19842;SDS011;10082;51.038;6.992;2023-08-01T12:32:41;3.67;;;2.38;;
19842;SDS011;10082;51.038;6.992;2023-08-01T12:35:10;2.63;;;2.33;;
19842;SDS011;10082;51.038;6.992;2023-08-01T12:37:37;3.75;;;2.75;;
19842;SDS011;10082;51.038;6.992;2023-08-01T12:40:05;4.40;;;2.92;;
19842;SDS011;10082;51.038;6.992;2023-08-01T12:42:33;5.25;;;2.97;;
19842;SDS011;10082;51.038;6.992;2023-08-01T12:45:00;3.88;;;3.17;;
19842;SDS011;10082;51.038;6.992;2023-08-01T12:47:27;6.38;;;3.80;;
19842;SDS011;10082;51.038;6.992;2023-08-01T12:49:54;5.43;;;4.10;;
19842;SDS011;10082;51.038;6.992;2023-08-01T12:52:24;5.35;;;4.43;;
19842;SDS011;10082;51.038;6.992;2023-08-01T12:54:52;6.78;;;4.68;;
19842;SDS011;10082;51.038;6.992;2023-08-01T12:57:19;5.57;;;4.75;;
19842;SDS011;10082;51.038;6.992;2023-08-01T12:59:46;8.02;;;5.22;;
19842;SDS011;10082;51.038;6.992;2023-08-01T13:02:13;6.13;;;5.00;;
19842;SDS011;10082;51.038;6.992;2023-08-01T13:04:41;7.20;;;5.35;;
19842;SDS011;10082;51.038;6.992;2023-08-01T13:07:08;7.80;;;5.28;;
19842;SDS011;10082;51.038;6.992;2023-08-01T13:09:37;7.53;;;5.30;;
19842;SDS011;10082;51.038;6.992;2023-08-01T13:12:04;7.68;;;5.03;;
19842;SDS011;10082;51.038;6.992;2023-08-01T13:14:32;6.47;;;5.63;;
19842;SDS011;10082;51.038;6.992;2023-08-01T13:16:59;7.57;;;5.13;;
19842;SDS011;10082;51.038;6.992;2023-08-01T13:19:26;6.72;;;4.80;;
19842;SDS011;10082;51.038;6.992;2023-08-01T13:21:53;7.00;;;4.70;;
19842;SDS011;10082;51.038;6.992;2023-08-01T13:24:20;6.53;;;4.80;;
19842;SDS011;10082;51.038;6.992;2023-08-01T13:26:48;5.85;;;4.82;;
19842;SDS011;10082;51.038;6.992;2023-08-01T13:29:15;6.60;;;6.00;;
19842;SDS011;10082;51.038;6.992;2023-08-01T13:31:42;7.05;;;5.65;;
19842;SDS011;10082;51.038;6.992;2023-08-01T13:34:09;5.22;;;4.00;;
19842;SDS011;10082;51.038;6.992;2023-08-01T13:36:36;9.73;;;8.13;;
19842;SDS011;10082;51.038;6.992;2023-08-01T13:39:04;5.40;;;4.90;;
19842;SDS011;10082;51.038;6.992;2023-08-01T13:41:31;7.43;;;5.72;;
19842;SDS011;10082;51.038;6.992;2023-08-01T13:44:00;19.95;;;13.13;;
19842;SDS011;10082;51.038;6.992;2023-08-01T13:46:27;6.53;;;5.35;;
19842;SDS011;10082;51.038;6.992;2023-08-01T13:48:54;9.10;;;6.40;;
19842;SDS011;10082;51.038;6.992;2023-08-01T13:51:21;13.13;;;9.45;;
19842;SDS011;10082;51.038;6.992;2023-08-01T13:53:48;12.75;;;10.65;;
19842;SDS011;10082;51.038;6.992;2023-08-01T13:56:15;8.70;;;7.88;;
19842;SDS011;10082;51.038;6.992;2023-08-01T13:58:43;5.60;;;5.10;;
19842;SDS011;10082;51.038;6.992;2023-08-01T14:01:13;3.90;;;3.50;;
19842;SDS011;10082;51.038;6.992;2023-08-01T14:03:39;5.88;;;4.13;;
19842;SDS011;10082;51.038;6.992;2023-08-01T14:06:07;5.32;;;4.25;;
19842;SDS011;10082;51.038;6.992;2023-08-01T14:08:36;5.15;;;3.85;;
19842;SDS011;10082;51.038;6.992;2023-08-01T14:11:04;4.47;;;4.07;;
19842;SDS011;10082;51.038;6.992;2023-08-01T14:13:34;4.30;;;3.90;;
19842;SDS011;10082;51.038;6.992;2023-08-01T14:16:02;4.97;;;4.13;;
19842;SDS011;10082;51.038;6.992;2023-08-01T14:18:31;5.72;;;4.10;;
19842;SDS011;10082;51.038;6.992;2023-08-01T14:20:58;5.65;;;4.32;;
19842;SDS011;10082;51.038;6.992;2023-08-01T14:23:26;5.22;;;4.32;;
19842;SDS011;10082;51.038;6.992;2023-08-01T14:25:54;5.38;;;4.55;;
19842;SDS011;10082;51.038;6.992;2023-08-01T14:28:21;7.13;;;4.50;;
19842;SDS011;10082;51.038;6.992;2023-08-01T14:30:48;5.45;;;4.60;;
19842;SDS011;10082;51.038;6.992;2023-08-01T14:33:15;6.75;;;4.60;;
19842;SDS011;10082;51.038;6.992;2023-08-01T14:35:43;6.47;;;5.05;;
19842;SDS011;10082;51.038;6.992;2023-08-01T14:38:10;6.72;;;4.57;;
19842;SDS011;10082;51.038;6.992;2023-08-01T14:40:37;5.72;;;4.10;;
19842;SDS011;10082;51.038;6.992;2023-08-01T14:43:04;6.78;;;4.43;;
19842;SDS011;10082;51.038;6.992;2023-08-01T14:45:31;8.20;;;5.47;;
19842;SDS011;10082;51.038;6.992;2023-08-01T14:47:59;6.78;;;4.95;;
19842;SDS011;10082;51.038;6.992;2023-08-01T14:50:25;6.13;;;4.70;;